Terminal Aerodrome Forecast
Issued by NWS Cleveland, OH

Home | Current Version | Previous Version | Graphics & Text | Print | Product List | Glossary On
Versions: 1 2 3 4 5 6 7 8 9 10 11 12 13 14 15
000
FTUS41 KCLE 281126
TAFERI
TAF
KERI 281126Z 2812/2912 16012G20KT P6SM FEW090 BKN250
     FM281600 12012G25KT P6SM FEW050 BKN090
     FM282300 09010G18KT P6SM VCSH OVC050=

USA.gov is the U.S. government's official web portal to all federal, state and local government web resources and services.